LEBL Airport Information

Runway Information
Runway 02 Length 8333 ft width 148 ft
Elevation 7 ft Threshold 131 ft Heading 19
Runway 20 Length 8333 ft Width 148 ft
Elevation 12 ft Threshold 0 ft Heading 199
Runway 07L Length 11654 ft width 148 ft
Elevation 8 ft Threshold 295 ft Heading 66
Runway 25R Length 11654 ft Width 148 ft
Elevation 10 ft Threshold 0 ft Heading 246
Runway 07R Length 8727 ft width 197 ft
Elevation 8 ft Threshold 0 ft Heading 66
Runway 25L Length 8727 ft Width 197 ft
Elevation 8 ft Threshold 0 ft Heading 246
Airport Frequencies
Type APP Name APP Frequency 119.1 MHZ
Type ATIS Name ATIS Frequency 118.65 MHZ
Type CLD Name CLNC DEL Frequency 121.8 MHZ
Type GND Name GND Frequency 121.65 MHZ
Type TWR Name TWR Frequency 118.1 MHZ
Airport Navaids
Type VOR-DME Name Barcelona Frequency 116700 KHZ
Type VOR-DME Name El Prat Frequency 114300 KHZ
Type VOR-DME Name Sabadell Frequency 112000 KHZ
Type NDB Name Villanueva Frequency 380 KHZ
Airport Weather Information & NOTAM
ADDS - METARS form results

(0225 UTC 27 April 2018)
 
METAR text: LEBL 270200Z 30003KT 270V330 9999 FEW025 15/12 Q1013 NOSIG
Conditions at: LEBL (BARCELONA AIRPOR, ES) observed 0200 UTC 27 April 2018
Temperature: 15.0°C (59°F)
Dewpoint: 12.0°C (54°F) [RH = 82%]
Pressure (altimeter): 29.91 inches Hg (1013.0 mb)
Winds: from the WNW (300 degrees) at 3 MPH (3 knots; 1.6 m/s)
Visibility: 6 or more miles (10+ km)
Ceiling: at least 12,000 feet AGL
Clouds: few clouds at 2500 feet AGL
Weather: no significant weather observed at this time

METAR text: LEBL 270130Z 24004KT 210V270 9999 FEW025 15/13 Q1013 NOSIG
Conditions at: LEBL (BARCELONA AIRPOR, ES) observed 0130 UTC 27 April 2018
Temperature: 15.0°C (59°F)
Dewpoint: 13.0°C (55°F) [RH = 88%]
Pressure (altimeter): 29.91 inches Hg (1013.0 mb)
Winds: from the WSW (240 degrees) at 5 MPH (4 knots; 2.1 m/s)
Visibility: 6 or more miles (10+ km)
Ceiling: at least 12,000 feet AGL
Clouds: few clouds at 2500 feet AGL
Weather: no significant weather observed at this time